Harpswell, Maine
Current Conditions -  °F | °C
As of 12:51 PM on Monday 22 Dec 2014 (Local Time) from KPWM Reporting Station
Broken Clouds Broken Clouds  
Wind Chill: 36°   Ceiling: 1300
Heat Index: 40°   Visibility: 10mi
Dew Point: 32°   Wind: 6mph
Humidity: 73%   Direction: NA
Pressure: 30.37"   Gusts: NA
Location:  43.74°N, 70.01°W
Report Text: KPWM 221751Z VRB05KT 10SM BKN013 BKN050 04/00 A3037 RMK AO2 SLP285 T00440000 10044 21006 56021
Loading
Personal Weather Stations






























Interactive Weather Map New forecast layout! Learn more

10-Day Weather Forecast

Advertisements
Track Severe Weather on mobile